Last 7 Days

Upper Lake

Hourly Data | America/Los_Angeles
as of 8/31/26 2:36 PM PDT
Date & Time Temp (°F) RH (%) Dew Pt (°F) Wet Bulb (°F) Wind Dir (°) Wind Spd (mph) Wind Gust (mph) Leaf Wet (mins) BatVolt (V) Latest Rain (In) Daily Rain (In) Daily Min Temp (°F) Daily Max Temp (°F) Daily Max Wind (mph) Daily Leaf Wet (Hrs)
8/31/26 - 1400 83.7 30 49.1 60.9 SSE | 148 4.0 9.8 0.0 13.2 0.00 0.00 45.4 85.9 11.2 0.0
8/31/26 - 1300 81.2 35 51.0 61.4 SSE | 150 4.4 9.4 0.0 13.2 0.00 0.00 45.4 82.5 11.2 0.0
8/31/26 - 1200 79.5 37 51.2 61.1 SSE | 157 2.7 11.2 0.0 13.3 0.00 0.00 45.4 81.1 11.2 0.0
8/31/26 - 1100 76.3 37 48.2 58.9 SSW | 208 1.9 5.4 0.0 13.2 0.00 0.00 45.4 78.7 5.6 0.0
8/31/26 - 1000 70.3 48 49.5 58.0 SE | 139 1.5 5.6 0.0 12.7 0.00 0.00 45.4 73.6 5.6 0.0
8/31/26 - 0900 61.6 62 48.4 54.6 E | 98 0.6 3.1 0.0 12.6 0.00 0.00 45.4 67.0 3.1 0.0
8/31/26 - 0800 49.3 86 45.3 47.7 SSE | 152 0.2 2.4 0.0 12.5 0.00 0.00 45.4 55.1 2.6 0.0
8/31/26 - 0700 45.9 90 43.0 44.9 N | 355 0.1 2.6 0.0 12.5 0.00 0.00 45.4 52.6 2.6 0.0
8/31/26 - 0600 46.6 88 43.4 45.4 N | 7 0.2 1.6 0.0 12.5 0.00 0.00 46.2 52.6 1.9 0.0
8/31/26 - 0500 47.8 86 43.9 46.3 ESE | 110 0.0 0.9 0.0 12.5 0.00 0.00 47.1 52.6 1.9 0.0
8/31/26 - 0400 48.9 82 43.8 46.8 ESE | 122 0.0 0.8 0.0 12.6 0.00 0.00 48.0 52.6 1.9 0.0
8/31/26 - 0300 50.2 80 44.4 47.7 NNE | 21 0.2 1.9 0.0 12.6 0.00 0.00 49.7 52.6 1.9 0.0
8/31/26 - 0200 52.0 76 44.6 48.6 NW | 309 0.0 1.1 0.0 12.6 0.00 0.00 51.3 52.6 1.1 0.0
8/31/26 - 0100 54.2 72 45.2 49.9 N | 349 0.0 1.1 0.0 12.6 0.00 0.00 44.8 91.3 13.6 0.0
8/31/26 - 0000 56.8 65 45.3 51.1 NNW | 331 0.1 1.8 0.0 12.6 0.00 0.00 44.8 91.3 13.6 0.0
8/30/26 - 2300 59.6 59 45.4 52.3 NW | 320 0.4 2.3 0.0 12.6 0.00 0.00 44.8 91.3 13.6 0.0
8/30/26 - 2200 65.5 50 46.6 54.9 NNW | 338 0.6 3.3 0.0 12.6 0.00 0.00 44.8 91.3 13.6 0.0
8/30/26 - 2100 74.4 39 47.5 58.1 NW | 307 2.1 7.7 0.0 12.7 0.00 0.00 44.8 91.3 13.6 0.0
8/30/26 - 2000 78.8 34 47.8 59.2 WNW | 297 3.5 13.6 0.0 12.8 0.00 0.00 44.8 91.3 13.6 0.0
8/30/26 - 1900 84.1 30 49.7 61.3 WNW | 298 4.3 12.8 0.0 13.2 0.00 0.00 44.8 91.3 13.4 0.0
8/30/26 - 1800 88.1 28 50.9 62.5 WNW | 303 4.2 13.4 0.0 13.1 0.00 0.00 44.8 91.3 13.4 0.0
8/30/26 - 1700 89.3 20 42.6 59.2 SE | 144 2.9 8.1 0.0 13.1 0.00 0.00 44.8 91.3 12.8 0.0
8/30/26 - 1600 88.8 21 44.4 59.8 SSE | 153 3.8 10.0 0.0 13.1 0.00 0.00 44.8 90.1 12.8 0.0
8/30/26 - 1500 87.5 22 44.2 59.4 SE | 142 3.4 9.6 0.0 13.1 0.00 0.00 44.8 88.5 12.8 0.0
8/30/26 - 1400 85.1 27 47.2 60.3 SSE | 156 4.7 10.5 0.0 13.2 0.00 0.00 44.8 86.9 12.8 0.0
8/30/26 - 1300 82.4 32 49.9 61.1 SSE | 150 4.6 12.8 0.0 13.2 0.00 0.00 44.8 84.5 12.8 0.0
8/30/26 - 1200 78.7 38 51.0 60.9 SE | 141 2.6 8.0 0.0 13.3 0.00 0.00 44.8 80.7 8.0 0.0
8/30/26 - 1100 74.3 45 51.7 60.3 SE | 146 1.9 6.9 0.0 13.2 0.00 0.00 44.8 76.1 6.9 0.0
8/30/26 - 1000 68.8 55 51.8 58.9 SE | 127 1.2 4.9 0.0 12.7 0.00 0.00 44.8 71.8 4.9 0.0
8/30/26 - 0900 61.4 65 49.3 55.0 ESE | 118 0.4 2.4 0.0 12.6 0.00 0.00 44.8 66.0 2.5 0.0
8/30/26 - 0800 48.5 90 45.6 47.5 NE | 40 0.4 1.6 0.0 12.5 0.00 0.00 44.8 56.0 2.5 0.0
8/30/26 - 0700 45.3 93 43.4 44.8 SE | 130 0.0 1.1 0.0 12.5 0.00 0.00 44.8 52.2 2.5 0.0
8/30/26 - 0600 46.3 92 44.2 45.8 NNE | 18 0.3 2.5 0.0 12.5 0.00 0.00 45.6 52.2 2.5 0.0
8/30/26 - 0500 47.4 90 44.7 46.5 W | 273 0.0 1.4 0.0 12.5 0.00 0.00 46.6 52.2 2.3 0.0
8/30/26 - 0400 48.0 88 44.8 46.9 WNW | 283 0.1 2.3 0.0 12.6 0.00 0.00 47.6 52.2 2.3 0.0
8/30/26 - 0300 49.0 87 45.3 47.6 WNW | 286 0.0 1.8 0.0 12.6 0.00 0.00 48.0 52.2 1.8 0.0
8/30/26 - 0200 50.8 84 46.3 49.0 N | 0 0.0 0.0 0.0 12.6 0.00 0.00 49.6 52.2 0.0 0.0
8/30/26 - 0100 54.4 76 47.0 51.0 E | 98 0.3 3.9 0.0 12.6 0.00 0.00 41.1 88.5 17.3 0.0
8/30/26 - 0000 58.4 65 46.6 52.4 NNW | 346 0.8 3.7 0.0 12.6 0.00 0.00 41.1 88.5 17.3 0.0
8/29/26 - 2300 61.2 60 47.0 53.7 N | 357 1.1 5.0 0.0 12.6 0.00 0.00 41.1 88.5 17.3 0.0
8/29/26 - 2200 65.7 52 47.8 55.6 NNW | 335 2.2 8.3 0.0 12.7 0.00 0.00 41.1 88.5 17.3 0.0
8/29/26 - 2100 68.8 48 48.2 56.9 WNW | 299 3.7 13.6 0.0 12.8 0.00 0.00 41.1 88.5 17.3 0.0
8/29/26 - 2000 72.2 43 48.3 57.9 WNW | 292 3.7 11.7 0.0 12.9 0.00 0.00 41.1 88.5 17.3 0.0
8/29/26 - 1900 77.2 37 49.1 59.5 WNW | 296 5.5 17.3 0.0 13.3 0.00 0.00 41.1 88.5 17.3 0.0
8/29/26 - 1800 81.0 35 50.9 61.3 WNW | 296 4.9 14.8 0.0 13.3 0.00 0.00 41.1 88.5 16.6 0.0
8/29/26 - 1700 83.0 34 51.6 62.0 WNW | 286 5.1 16.6 0.0 13.2 0.00 0.00 41.1 88.5 16.6 0.0
8/29/26 - 1600 85.0 27 47.2 60.3 WNW | 288 4.4 13.5 0.0 13.2 0.00 0.00 41.1 88.5 14.1 0.0
8/29/26 - 1500 86.1 27 47.7 60.7 WNW | 301 4.9 14.1 0.0 13.1 0.00 0.00 41.1 88.5 14.1 0.0
8/29/26 - 1400 84.9 25 45.6 59.6 WNW | 289 3.3 11.7 0.0 13.2 0.00 0.00 41.1 86.7 11.7 0.0
8/29/26 - 1300 83.0 29 47.5 60.0 W | 263 2.9 11.1 0.0 13.2 0.00 0.00 41.1 84.7 11.1 0.0
8/29/26 - 1200 78.9 34 48.1 59.4 SSW | 212 3.1 9.1 0.0 13.3 0.00 0.00 41.1 81.4 9.1 0.0
8/29/26 - 1100 74.0 40 48.3 58.4 SSW | 199 2.4 7.5 0.0 13.3 0.00 0.00 41.1 76.5 7.5 0.0
8/29/26 - 1000 68.1 47 47.0 56.0 SE | 137 1.7 6.8 0.0 12.7 0.00 0.00 41.1 71.6 6.8 0.0
8/29/26 - 0900 58.6 60 44.6 51.4 ESE | 112 0.9 3.3 0.0 12.6 0.00 0.00 41.1 65.2 3.3 0.0
8/29/26 - 0800 44.9 88 41.4 43.5 SSE | 156 0.1 1.6 0.0 12.5 0.00 0.00 41.1 52.3 2.8 0.0
8/29/26 - 0700 41.8 91 39.4 40.9 N | 3 0.1 2.1 0.0 12.5 0.00 0.00 41.1 47.6 2.8 0.0
8/29/26 - 0600 42.0 90 39.2 40.9 N | 353 0.0 1.2 0.0 12.5 0.00 0.00 41.1 47.6 2.8 0.0
8/29/26 - 0500 43.1 88 39.8 41.8 NNW | 343 0.1 1.8 0.0 12.6 0.00 0.00 42.6 47.6 2.8 0.0
8/29/26 - 0400 44.3 86 40.3 42.7 NNW | 346 0.0 1.0 0.0 12.6 0.00 0.00 43.4 47.6 2.8 0.0
8/29/26 - 0300 46.0 81 40.6 43.7 NW | 308 0.1 1.9 0.0 12.6 0.00 0.00 45.4 47.6 2.8 0.0
8/29/26 - 0200 47.0 80 41.1 44.5 NW | 322 0.3 2.8 0.0 12.6 0.00 0.00 46.4 47.6 2.8 0.0
8/29/26 - 0100 48.7 77 41.7 45.6 NNW | 340 0.1 1.4 0.0 12.6 0.00 0.00 47.3 84.9 11.2 0.0
8/29/26 - 0000 50.7 72 42.0 46.7 NNW | 339 0.1 2.0 0.0 12.6 0.00 0.00 49.3 84.9 11.2 0.0
8/28/26 - 2300 54.4 64 42.4 48.6 NNW | 347 0.2 1.9 0.0 12.6 0.00 0.00 52.8 84.9 11.2 0.0
8/28/26 - 2200 60.0 54 43.2 51.3 N | 357 0.6 3.7 0.0 12.7 0.00 0.00 53.7 84.9 11.2 0.0
8/28/26 - 2100 69.9 40 44.6 55.3 NW | 325 1.4 5.9 0.0 12.8 0.00 0.00 53.7 84.9 11.2 0.0
8/28/26 - 2000 75.4 28 40.3 55.1 WNW | 296 2.8 8.4 0.0 12.9 0.00 0.00 53.7 84.9 11.2 0.0
8/28/26 - 1900 79.0 30 44.7 57.9 W | 279 3.1 11.2 0.0 13.3 0.00 0.00 53.7 84.9 11.2 0.0
8/28/26 - 1800 80.4 32 47.4 59.4 WNW | 290 3.3 10.4 0.0 13.2 0.00 0.00 53.7 84.9 11.1 0.0
8/28/26 - 1700 82.2 26 43.4 58.1 WNW | 301 3.5 10.8 0.0 13.3 0.00 0.00 53.7 84.9 11.1 0.0
8/28/26 - 1600 83.6 19 36.8 55.9 WNW | 295 3.2 11.1 0.0 13.2 0.00 0.00 53.7 84.9 11.1 0.0
8/28/26 - 1500 80.9 20 36.4 55.1 SSE | 157 3.9 8.2 0.0 13.3 0.00 0.00 53.7 83.0 10.7 0.0
8/28/26 - 1400 81.7 24 41.4 57.1 SSE | 148 3.6 10.7 0.0 13.2 0.00 0.00 53.7 83.0 10.7 0.0
8/28/26 - 1300 79.8 26 42.0 57.0 SSE | 147 2.3 6.4 0.0 13.3 0.00 0.00 53.7 82.1 6.6 0.0
8/28/26 - 1200 80.5 26 42.6 57.3 SSE | 159 1.1 3.9 0.0 13.3 0.00 0.00 53.7 82.1 6.6 0.0
8/28/26 - 1100 76.0 35 46.1 57.8 SSE | 150 2.1 6.6 0.0 13.3 0.00 0.00 53.7 80.6 6.6 0.0
8/28/26 - 1000 67.0 52 48.7 56.6 SE | 139 1.0 3.8 0.0 12.9 0.00 0.00 53.7 71.2 3.8 0.0
8/28/26 - 0900 60.1 66 48.8 54.3 SSE | 151 0.7 2.4 0.0 12.7 0.00 0.00 53.7 63.5 3.5 0.0
8/28/26 - 0800 55.0 78 48.1 51.9 NNW | 332 0.2 2.1 0.0 12.6 0.00 0.00 53.7 59.8 3.5 0.0
8/28/26 - 0700 54.0 79 47.6 51.2 SSE | 159 0.1 2.1 0.0 12.5 0.00 0.00 53.7 59.8 3.5 0.0
8/28/26 - 0600 54.5 79 48.1 51.7 E | 99 0.3 2.7 0.0 12.5 0.00 0.00 54.1 59.8 3.5 0.0
8/28/26 - 0500 55.3 75 47.4 51.7 N | 2 0.5 2.3 0.0 12.5 0.00 0.00 54.8 59.8 3.5 0.0
8/28/26 - 0400 56.2 71 47.0 51.8 SE | 133 0.2 2.1 0.0 12.5 0.00 0.00 55.6 59.8 3.5 0.0
8/28/26 - 0300 57.9 67 47.2 52.6 W | 272 0.6 3.5 0.0 12.6 0.00 0.00 56.4 59.8 3.5 0.0
8/28/26 - 0200 58.6 68 48.0 53.3 SSE | 163 0.3 3.5 0.0 12.6 0.00 0.00 57.3 59.8 3.5 0.0
8/28/26 - 0100 65.4 50 46.0 54.6 NNW | 346 1.5 8.4 0.0 12.6 0.00 0.00 51.8 95.7 18.7 0.0
8/28/26 - 0000 70.5 42 46.2 56.4 NNW | 346 3.0 12.8 0.0 12.6 0.00 0.00 51.8 95.7 18.7 0.0
8/27/26 - 2300 73.4 42 49.0 58.6 NW | 322 4.5 12.1 0.0 12.6 0.00 0.00 51.8 95.7 18.7 0.0
8/27/26 - 2200 74.9 40 49.1 59.0 WNW | 295 3.7 11.7 0.0 12.6 0.00 0.00 51.8 95.7 18.7 0.0
8/27/26 - 2100 77.3 34 46.9 58.5 WNW | 297 2.5 10.1 0.0 12.7 0.00 0.00 51.8 95.7 18.7 0.0
8/27/26 - 2000 82.2 29 47.2 59.7 NW | 304 3.3 11.1 0.0 12.8 0.00 0.00 51.8 95.7 18.7 0.0
8/27/26 - 1900 87.1 26 48.5 61.2 WNW | 303 4.3 15.0 0.0 13.1 0.00 0.00 51.8 95.7 18.7 0.0
8/27/26 - 1800 90.5 26 51.2 63.0 NW | 317 4.6 14.1 0.0 13.1 0.00 0.00 51.8 95.7 18.7 0.0
8/27/26 - 1700 93.3 22 48.6 62.2 WNW | 295 4.6 18.7 0.0 13.0 0.00 0.00 51.8 95.7 18.7 0.0
8/27/26 - 1600 94.5 20 46.9 61.6 WNW | 288 3.6 12.3 0.0 13.0 0.00 0.00 51.8 95.7 15.0 0.0
8/27/26 - 1500 93.7 19 45.5 61.0 NW | 308 3.9 12.7 0.0 13.0 0.00 0.00 51.8 95.1 15.0 0.0
8/27/26 - 1400 92.4 23 48.7 62.1 WNW | 303 4.3 13.2 0.0 13.1 0.00 0.00 51.8 93.7 15.0 0.0
8/27/26 - 1300 89.5 27 51.0 62.8 W | 277 4.0 12.9 0.0 13.1 0.00 0.00 51.8 91.3 15.0 0.0
8/27/26 - 1200 86.4 29 50.1 61.9 WNW | 295 4.7 15.0 0.0 13.2 0.00 0.00 51.8 88.7 15.0 0.0
8/27/26 - 1100 82.3 35 51.5 61.9 W | 264 3.2 10.5 0.0 13.1 0.00 0.00 51.8 84.8 10.5 0.0
8/27/26 - 1000 74.8 48 53.7 61.6 ESE | 116 1.7 5.6 0.0 12.6 0.00 0.00 51.8 78.7 10.0 0.0
8/27/26 - 0900 66.2 63 52.9 58.8 SE | 125 0.5 2.6 0.0 12.6 0.00 0.00 51.8 72.0 10.0 0.0
8/27/26 - 0800 54.1 88 50.5 52.9 NNW | 343 0.3 2.3 0.0 12.5 0.00 0.00 51.8 67.5 10.0 0.0
8/27/26 - 0700 52.7 89 49.7 51.8 NNW | 341 0.4 2.3 0.0 12.5 0.00 0.00 51.8 67.5 10.0 0.0
8/27/26 - 0600 55.4 84 50.6 53.6 NNW | 329 0.8 3.7 0.0 12.5 0.00 0.00 54.3 67.5 10.0 0.0
8/27/26 - 0500 56.1 83 51.0 54.1 SSW | 207 0.8 4.2 0.0 12.5 0.00 0.00 55.6 67.5 10.0 0.0
8/27/26 - 0400 58.4 76 51.0 55.0 SE | 138 1.1 4.9 0.0 12.5 0.00 0.00 56.0 67.5 10.0 0.0
8/27/26 - 0300 62.9 65 50.9 56.5 NNE | 14 2.8 10.0 0.0 12.6 0.00 0.00 60.0 67.5 10.0 0.0
8/27/26 - 0200 62.0 69 51.7 56.7 NW | 324 1.2 6.1 0.0 12.6 0.00 0.00 60.3 67.5 6.1 0.0
8/27/26 - 0100 64.8 62 51.5 57.5 NNW | 346 2.4 10.3 0.0 12.6 0.00 0.00 43.0 94.9 16.2 0.0
8/27/26 - 0000 63.7 63 50.8 56.7 N | 353 1.9 11.8 0.0 12.6 0.00 0.00 43.0 94.9 16.2 0.0
8/26/26 - 2300 68.1 60 53.8 59.9 NW | 312 1.3 7.7 0.0 12.6 0.00 0.00 43.0 94.9 16.2 0.0
8/26/26 - 2200 72.1 55 55.0 61.7 NW | 312 1.8 6.7 0.0 12.6 0.00 0.00 43.0 94.9 16.2 0.0
8/26/26 - 2100 74.5 51 55.2 62.4 WNW | 299 2.9 7.8 0.0 12.7 0.00 0.00 43.0 94.9 16.2 0.0
8/26/26 - 2000 78.2 43 53.8 62.4 NW | 313 4.0 16.2 0.0 12.8 0.00 0.00 43.0 94.9 16.2 0.0
8/26/26 - 1900 84.1 31 49.9 61.4 WNW | 298 5.2 14.7 0.0 13.2 0.00 0.00 43.0 94.9 16.2 0.0
8/26/26 - 1800 88.2 26 49.4 61.8 WNW | 297 5.2 16.2 0.0 13.1 0.00 0.00 43.0 94.9 16.2 0.0
8/26/26 - 1700 91.3 21 45.7 60.7 WNW | 290 4.6 14.9 0.0 13.1 0.00 0.00 43.0 94.9 15.6 0.0
8/26/26 - 1600 92.9 19 44.1 60.3 WNW | 286 4.2 15.6 0.0 13.0 0.00 0.00 43.0 94.9 15.6 0.0
8/26/26 - 1500 93.4 17 41.3 59.4 W | 262 2.9 11.5 0.0 13.0 0.00 0.00 43.0 94.9 12.7 0.0
8/26/26 - 1400 91.5 18 41.7 59.2 W | 270 3.1 10.4 0.0 13.1 0.00 0.00 43.0 93.3 12.7 0.0
8/26/26 - 1300 89.2 20 43.4 59.4 WNW | 290 3.0 12.7 0.0 13.1 0.00 0.00 43.0 90.5 12.7 0.0
8/26/26 - 1200 84.8 25 45.0 59.2 W | 265 3.4 10.1 0.0 13.2 0.00 0.00 43.0 87.4 10.1 0.0
8/26/26 - 1100 78.4 33 47.1 58.8 ESE | 112 1.8 5.5 0.0 13.2 0.00 0.00 43.0 81.9 5.5 0.0
8/26/26 - 1000 71.9 40 46.3 56.8 ESE | 115 1.0 3.0 0.0 12.7 0.00 0.00 43.0 75.3 3.0 0.0
8/26/26 - 0900 61.7 53 44.5 52.5 SE | 138 0.6 2.8 0.0 12.6 0.00 0.00 43.0 67.6 2.8 0.0
8/26/26 - 0800 47.3 84 42.5 45.3 SE | 127 0.0 1.3 0.0 12.6 0.00 0.00 43.0 55.9 2.7 0.0
8/26/26 - 0700 43.8 90 40.9 42.8 NE | 50 0.2 2.2 0.0 12.5 0.00 0.00 43.0 54.6 2.7 0.0
8/26/26 - 0600 44.5 89 41.5 43.4 WNW | 293 0.0 1.2 0.0 12.5 0.00 0.00 43.2 54.6 2.7 0.0
8/26/26 - 0500 46.6 84 42.0 44.7 W | 271 0.1 1.3 0.0 12.5 0.00 0.00 45.8 54.6 2.7 0.0
8/26/26 - 0400 47.5 80 41.8 45.1 NNW | 347 0.2 2.0 0.0 12.6 0.00 0.00 46.8 54.6 2.7 0.0
8/26/26 - 0300 49.3 80 43.3 46.7 WNW | 282 0.1 2.7 0.0 12.6 0.00 0.00 48.4 54.6 2.7 0.0
8/26/26 - 0200 52.5 71 43.2 48.2 W | 265 0.1 2.0 0.0 12.6 0.00 0.00 50.3 54.6 2.0 0.0
8/26/26 - 0100 57.2 57 42.2 49.7 NW | 316 0.6 4.3 0.0 12.6 0.00 0.00 47.8 91.1 15.0 0.0
8/26/26 - 0000 59.4 54 42.6 50.8 NW | 304 1.0 3.8 0.0 12.6 0.00 0.00 47.8 91.1 15.0 0.0
8/25/26 - 2300 62.7 49 43.2 52.3 NW | 326 0.8 3.2 0.0 12.6 0.00 0.00 47.8 91.1 15.0 0.0
8/25/26 - 2200 71.6 37 44.0 55.6 NW | 305 1.7 7.3 0.0 12.6 0.00 0.00 47.8 91.1 15.0 0.0
8/25/26 - 2100 76.2 29 41.9 55.9 WNW | 300 2.7 11.7 0.0 12.7 0.00 0.00 47.8 91.1 15.0 0.0
8/25/26 - 2000 80.2 29 45.4 58.4 WNW | 296 3.8 11.1 0.0 12.8 0.00 0.00 47.8 91.1 15.0 0.0
8/25/26 - 1900 85.7 29 49.6 61.5 WNW | 293 4.6 15.0 0.0 13.2 0.00 0.00 47.8 91.1 15.0 0.0
8/25/26 - 1800 89.2 23 46.4 60.7 SSE | 161 3.9 9.9 0.0 13.1 0.00 0.00 47.8 91.1 11.7 0.0
8/25/26 - 1700 90.2 21 45.5 60.4 SE | 146 3.6 8.3 0.0 13.1 0.00 0.00 47.8 91.1 11.7 0.0
8/25/26 - 1600 90.5 20 44.2 60.0 SE | 137 3.6 10.3 0.0 13.1 0.00 0.00 47.8 91.1 11.7 0.0
8/25/26 - 1500 89.9 20 43.1 59.5 SE | 140 4.1 11.7 0.0 13.1 0.00 0.00 47.8 90.6 11.7 0.0
8/25/26 - 1400 88.7 20 42.9 59.2 SE | 128 2.3 7.6 0.0 13.1 0.00 0.00 47.8 90.3 8.8 0.0
8/25/26 - 1300 85.8 25 45.6 59.7 SE | 143 2.6 8.8 0.0 13.2 0.00 0.00 47.8 87.4 8.8 0.0
8/25/26 - 1200 80.4 36 51.0 61.3 SE | 132 2.2 5.3 0.0 13.3 0.00 0.00 47.8 84.5 5.3 0.0
8/25/26 - 1100 75.1 44 51.9 60.6 SE | 141 1.6 3.8 0.0 13.2 0.00 0.00 47.8 78.5 5.2 0.0
8/25/26 - 1000 71.9 48 51.2 59.4 SE | 140 1.8 5.2 0.0 12.7 0.00 0.00 47.8 73.6 5.2 0.0
8/25/26 - 0900 65.6 56 49.4 56.5 SSE | 155 1.3 4.2 0.0 12.6 0.00 0.00 47.8 71.4 4.2 0.0
8/25/26 - 0800 50.6 88 46.9 49.2 NNW | 346 0.4 2.3 0.0 12.5 0.00 0.00 47.8 58.1 3.5 0.0
8/25/26 - 0700 48.5 91 46.0 47.8 NNW | 346 0.4 2.8 0.0 12.5 0.00 0.00 47.8 53.7 3.5 0.0
8/25/26 - 0600 49.7 88 46.4 48.6 SSW | 196 0.4 3.5 0.0 12.5 0.00 0.00 48.9 53.7 3.5 0.0
8/25/26 - 0500 49.9 89 46.7 48.8 NW | 308 0.6 2.4 0.0 12.5 0.00 0.00 48.9 53.7 3.4 0.0
8/25/26 - 0400 49.8 86 45.9 48.4 NNW | 348 0.6 3.4 0.0 12.5 0.00 0.00 48.9 53.7 3.4 0.0
8/25/26 - 0300 51.0 83 45.9 48.9 N | 350 0.3 3.1 0.0 12.6 0.00 0.00 50.3 53.7 3.1 0.0
8/25/26 - 0200 52.6 83 47.5 50.6 N | 353 0.2 2.0 0.0 12.6 0.00 0.00 50.8 53.7 2.0 0.0
8/25/26 - 0100 54.7 74 46.7 51.0 NNW | 344 0.4 2.4 0.0 12.6 0.00 0.00 47.8 92.8 15.6 0.0
8/25/26 - 0000 56.9 72 48.0 52.6 NNW | 327 0.4 2.8 0.0 12.6 0.00 0.00 47.8 92.8 15.6 0.0
8/24/26 - 2300 60.8 64 48.7 54.5 NNW | 330 0.1 1.3 0.0 12.6 0.00 0.00 47.8 92.8 15.6 0.0
8/24/26 - 2200 68.3 51 48.9 57.1 NW | 323 0.6 4.8 0.0 12.6 0.00 0.00 47.8 92.8 15.6 0.0
8/24/26 - 2100 73.8 44 50.6 59.5 WNW | 291 1.8 5.6 0.0 12.7 0.00 0.00 47.8 92.8 15.6 0.0
8/24/26 - 2000 79.6 39 52.4 61.9 WNW | 287 4.6 15.6 0.0 12.8 0.00 0.00 47.8 92.8 15.6 0.0
8/24/26 - 1900 86.3 36 56.0 65.1 WNW | 295 4.0 10.8 0.0 13.2 0.00 0.00 47.8 92.8 11.7 0.0
8/24/26 - 1800 90.3 21 44.5 60.2 SSE | 158 4.5 10.6 0.0 13.1 0.00 0.00 47.8 92.8 11.7 0.0
8/24/26 - 1700 91.6 18 41.7 59.3 SSE | 156 4.1 9.9 0.0 13.0 0.00 0.00 47.8 92.8 11.7 0.0
8/24/26 - 1600 91.4 21 45.9 60.8 SSE | 156 5.2 10.8 0.0 13.1 0.00 0.00 47.8 92.3 11.7 0.0
8/24/26 - 1500 91.1 22 46.8 61.1 SSE | 148 4.8 11.7 0.0 13.1 0.00 0.00 47.8 91.9 11.7 0.0
Max 94.5 93 56.0 65.1 - 5.5 18.7 0.0 13.3 0.00 0.00 60.3 95.7 18.7 0.0
Avg 68.8 52 46.6 55.1 - 2.0 7.0 0.0 12.8 0.00 - - - - -
Min 41.8 17 36.4 40.9 - 0.0 0.0 0.0 12.5 0.00 0.00 41.1 47.6 0.0 0.0
Total - - - - - - - - - 0.00 - - - - -